sensor_id;sensor_type;location;lat;lon;timestamp;pressure;altitude;pressure_sealevel;temperature;humidity
70902;BME280;58548;47.210;8.618;2024-03-23T00:54:35;93738.56;;;16.19;34.66
70902;BME280;58548;47.210;8.618;2024-03-23T00:57:03;93674.97;;;15.74;35.25
70902;BME280;58548;47.210;8.618;2024-03-23T00:59:31;93547.97;;;15.02;35.18
70902;BME280;58548;47.210;8.618;2024-03-23T01:01:59;93635.63;;;15.67;34.84
70902;BME280;58548;47.210;8.618;2024-03-23T01:04:25;93728.00;;;16.31;34.65
70902;BME280;58548;47.210;8.618;2024-03-23T01:06:53;93735.66;;;16.32;34.93
70902;BME280;58548;47.210;8.618;2024-03-23T01:09:22;93597.19;;;15.55;34.76
70902;BME280;58548;47.210;8.618;2024-03-23T01:11:48;93717.91;;;16.39;34.44
70902;BME280;58548;47.210;8.618;2024-03-23T01:14:14;93720.53;;;16.39;34.66
70902;BME280;58548;47.210;8.618;2024-03-23T01:16:40;93609.88;;;15.70;34.47
70902;BME280;58548;47.210;8.618;2024-03-23T01:19:06;93714.47;;;16.39;34.60
70902;BME280;58548;47.210;8.618;2024-03-23T01:21:34;93714.69;;;16.37;34.71
70902;BME280;58548;47.210;8.618;2024-03-23T01:24:03;93704.63;;;16.34;34.85
70902;BME280;58548;47.210;8.618;2024-03-23T01:26:29;93676.38;;;16.18;35.07
70902;BME280;58548;47.210;8.618;2024-03-23T01:28:54;93672.41;;;16.15;35.04
70902;BME280;58548;47.210;8.618;2024-03-23T01:31:21;93685.88;;;16.19;34.58
70902;BME280;58548;47.210;8.618;2024-03-23T01:33:51;93689.41;;;16.24;34.96
70902;BME280;58548;47.210;8.618;2024-03-23T01:36:20;93590.91;;;15.56;35.23
70902;BME280;58548;47.210;8.618;2024-03-23T01:38:45;93675.38;;;16.07;35.06
70902;BME280;58548;47.210;8.618;2024-03-23T01:41:14;93684.75;;;16.15;34.67
70902;BME280;58548;47.210;8.618;2024-03-23T01:43:42;93670.59;;;16.04;34.99
70902;BME280;58548;47.210;8.618;2024-03-23T01:46:11;93595.22;;;15.62;34.73
70902;BME280;58548;47.210;8.618;2024-03-23T01:48:40;93687.75;;;16.18;34.80
70902;BME280;58548;47.210;8.618;2024-03-23T01:51:11;93573.38;;;15.49;35.02
70902;BME280;58548;47.210;8.618;2024-03-23T01:53:38;93675.47;;;16.24;34.88
70902;BME280;58548;47.210;8.618;2024-03-23T01:56:06;93587.66;;;15.65;35.14
70902;BME280;58548;47.210;8.618;2024-03-23T01:58:34;93669.25;;;16.30;35.50
70902;BME280;58548;47.210;8.618;2024-03-23T02:01:03;93653.44;;;16.30;35.57
70902;BME280;58548;47.210;8.618;2024-03-23T02:03:33;93628.34;;;16.27;35.41
70902;BME280;58548;47.210;8.618;2024-03-23T02:06:04;93539.91;;;15.86;35.29
70902;BME280;58548;47.210;8.618;2024-03-23T02:08:33;93634.81;;;16.66;35.63
70902;BME280;58548;47.210;8.618;2024-03-23T02:11:02;93630.50;;;16.77;34.91
70902;BME280;58548;47.210;8.618;2024-03-23T02:13:28;93600.47;;;16.78;34.78
70902;BME280;58548;47.210;8.618;2024-03-23T02:15:54;93515.94;;;16.33;34.99
70902;BME280;58548;47.210;8.618;2024-03-23T02:18:22;93474.59;;;16.17;34.63
70902;BME280;58548;47.210;8.618;2024-03-23T02:20:50;93507.81;;;16.52;34.81
70902;BME280;58548;47.210;8.618;2024-03-23T02:23:21;93609.16;;;17.29;34.78
70902;BME280;58548;47.210;8.618;2024-03-23T02:25:47;93499.31;;;16.67;34.92
70902;BME280;58548;47.210;8.618;2024-03-23T02:28:12;93585.72;;;17.33;34.94
70902;BME280;58548;47.210;8.618;2024-03-23T02:30:38;93511.25;;;16.92;34.66
70902;BME280;58548;47.210;8.618;2024-03-23T02:33:04;93484.59;;;16.88;34.62
70902;BME280;58548;47.210;8.618;2024-03-23T02:35:32;93592.69;;;17.61;34.50
70902;BME280;58548;47.210;8.618;2024-03-23T02:38:03;93504.22;;;17.14;34.40
70902;BME280;58548;47.210;8.618;2024-03-23T02:40:28;93586.72;;;17.71;34.08
70902;BME280;58548;47.210;8.618;2024-03-23T02:42:54;93486.00;;;17.13;34.19
70902;BME280;58548;47.210;8.618;2024-03-23T02:45:23;93491.84;;;17.15;33.70
70902;BME280;58548;47.210;8.618;2024-03-23T02:47:49;93487.09;;;17.17;33.75
70902;BME280;58548;47.210;8.618;2024-03-23T02:50:18;93578.06;;;17.76;34.15
70902;BME280;58548;47.210;8.618;2024-03-23T02:52:44;93461.56;;;17.00;33.92
70902;BME280;58548;47.210;8.618;2024-03-23T02:55:13;93571.13;;;17.70;33.95
70902;BME280;58548;47.210;8.618;2024-03-23T02:57:44;93470.84;;;17.03;34.16
70902;BME280;58548;47.210;8.618;2024-03-23T03:00:10;93463.66;;;16.98;33.89
70902;BME280;58548;47.210;8.618;2024-03-23T03:02:36;93575.84;;;17.68;33.68
70902;BME280;58548;47.210;8.618;2024-03-23T03:05:06;93568.97;;;17.67;33.79
70902;BME280;58548;47.210;8.618;2024-03-23T03:07:34;93567.38;;;17.66;33.81
70902;BME280;58548;47.210;8.618;2024-03-23T03:10:04;93556.53;;;17.62;33.89
70902;BME280;58548;47.210;8.618;2024-03-23T03:12:32;93564.75;;;17.66;34.38
70902;BME280;58548;47.210;8.618;2024-03-23T03:14:57;93524.53;;;17.36;34.15
70902;BME280;58548;47.210;8.618;2024-03-23T03:17:26;93461.50;;;16.95;33.86
70902;BME280;58548;47.210;8.618;2024-03-23T03:19:54;93539.75;;;17.51;34.12
70902;BME280;58548;47.210;8.618;2024-03-23T03:22:22;93558.91;;;17.63;34.39
70902;BME280;58548;47.210;8.618;2024-03-23T03:24:55;93557.06;;;17.64;34.03
70902;BME280;58548;47.210;8.618;2024-03-23T03:27:23;93510.03;;;17.39;34.19
70902;BME280;58548;47.210;8.618;2024-03-23T03:29:50;93545.16;;;17.61;33.30
70902;BME280;58548;47.210;8.618;2024-03-23T03:32:18;93452.59;;;17.01;33.45
70902;BME280;58548;47.210;8.618;2024-03-23T03:34:46;93541.47;;;17.62;33.93
70902;BME280;58548;47.210;8.618;2024-03-23T03:37:17;93528.41;;;17.51;34.02
70902;BME280;58548;47.210;8.618;2024-03-23T03:39:46;93556.03;;;17.65;33.95
70902;BME280;58548;47.210;8.618;2024-03-23T03:42:11;93545.47;;;17.65;33.47
70902;BME280;58548;47.210;8.618;2024-03-23T03:44:37;93552.66;;;17.70;33.93
70902;BME280;58548;47.210;8.618;2024-03-23T03:47:06;93543.41;;;17.72;33.92
70902;BME280;58548;47.210;8.618;2024-03-23T03:49:32;93407.63;;;16.91;33.80
70902;BME280;58548;47.210;8.618;2024-03-23T03:52:00;93425.44;;;17.01;33.48
70902;BME280;58548;47.210;8.618;2024-03-23T03:54:27;93528.63;;;17.71;32.95
70902;BME280;58548;47.210;8.618;2024-03-23T03:56:58;93510.88;;;17.67;33.51
70902;BME280;58548;47.210;8.618;2024-03-23T03:59:26;93521.81;;;17.75;33.76
70902;BME280;58548;47.210;8.618;2024-03-23T04:01:52;93397.78;;;17.03;33.34
70902;BME280;58548;47.210;8.618;2024-03-23T04:04:18;93417.44;;;17.18;32.88
70902;BME280;58548;47.210;8.618;2024-03-23T04:06:46;93413.22;;;17.17;32.67
70902;BME280;58548;47.210;8.618;2024-03-23T04:09:12;93397.56;;;17.10;32.43
70902;BME280;58548;47.210;8.618;2024-03-23T04:11:40;93420.69;;;17.25;33.15
70902;BME280;58548;47.210;8.618;2024-03-23T04:14:09;93483.44;;;17.68;32.68
70902;BME280;58548;47.210;8.618;2024-03-23T04:16:35;93411.44;;;17.23;33.30
70902;BME280;58548;47.210;8.618;2024-03-23T04:19:04;93402.50;;;17.24;33.06
70902;BME280;58548;47.210;8.618;2024-03-23T04:21:32;93475.66;;;17.83;33.04
70902;BME280;58548;47.210;8.618;2024-03-23T04:23:58;93366.28;;;17.19;32.58
70902;BME280;58548;47.210;8.618;2024-03-23T04:26:28;93344.09;;;17.15;32.25
70902;BME280;58548;47.210;8.618;2024-03-23T04:28:57;93346.41;;;17.11;32.92
70902;BME280;58548;47.210;8.618;2024-03-23T04:31:23;93341.63;;;17.08;32.83
70902;BME280;58548;47.210;8.618;2024-03-23T04:33:48;93455.09;;;17.85;32.63
70902;BME280;58548;47.210;8.618;2024-03-23T04:36:16;93412.06;;;17.57;32.47
70902;BME280;58548;47.210;8.618;2024-03-23T04:38:42;93424.31;;;17.69;32.20
70902;BME280;58548;47.210;8.618;2024-03-23T04:41:08;93432.28;;;17.74;32.79
70902;BME280;58548;47.210;8.618;2024-03-23T04:43:34;93423.75;;;17.67;32.72
70902;BME280;58548;47.210;8.618;2024-03-23T04:46:02;93262.25;;;16.60;32.46
70902;BME280;58548;47.210;8.618;2024-03-23T04:48:28;93320.66;;;16.96;32.93
70902;BME280;58548;47.210;8.618;2024-03-23T04:51:00;93366.34;;;17.24;32.91
70902;BME280;58548;47.210;8.618;2024-03-23T04:53:28;93399.81;;;17.46;32.83
70902;BME280;58548;47.210;8.618;2024-03-23T04:56:01;93297.13;;;16.67;33.38
70902;BME280;58548;47.210;8.618;2024-03-23T04:58:32;93326.97;;;16.95;32.54
70902;BME280;58548;47.210;8.618;2024-03-23T05:00:57;93376.09;;;17.24;33.11
70902;BME280;58548;47.210;8.618;2024-03-23T05:03:23;93389.66;;;17.32;32.47
70902;BME280;58548;47.210;8.618;2024-03-23T05:05:50;93362.56;;;17.15;32.68
70902;BME280;58548;47.210;8.618;2024-03-23T05:08:16;93334.91;;;16.95;32.77
70902;BME280;58548;47.210;8.618;2024-03-23T05:10:44;93370.56;;;17.25;32.99
70902;BME280;58548;47.210;8.618;2024-03-23T05:13:12;93291.72;;;16.79;32.49
70902;BME280;58548;47.210;8.618;2024-03-23T05:15:38;93274.13;;;16.85;32.75
70902;BME280;58548;47.210;8.618;2024-03-23T05:18:06;93275.84;;;16.96;32.49
70902;BME280;58548;47.210;8.618;2024-03-23T05:20:32;93386.28;;;17.70;32.32
70902;BME280;58548;47.210;8.618;2024-03-23T05:23:00;93372.09;;;17.76;32.13
70902;BME280;58548;47.210;8.618;2024-03-23T05:25:26;93274.25;;;17.23;32.09
70902;BME280;58548;47.210;8.618;2024-03-23T05:27:54;93369.06;;;17.94;32.52
70902;BME280;58548;47.210;8.618;2024-03-23T05:30:22;93252.31;;;17.22;32.34
70902;BME280;58548;47.210;8.618;2024-03-23T05:32:49;93287.06;;;17.41;32.38
70902;BME280;58548;47.210;8.618;2024-03-23T05:35:15;93415.22;;;18.14;33.02
70902;BME280;58548;47.210;8.618;2024-03-23T05:37:40;93417.13;;;18.24;32.96
70902;BME280;58548;47.210;8.618;2024-03-23T05:40:06;93427.47;;;18.31;32.08
70902;BME280;58548;47.210;8.618;2024-03-23T05:42:35;93333.53;;;17.75;32.54
70902;BME280;58548;47.210;8.618;2024-03-23T05:45:01;93452.22;;;18.52;32.19
70902;BME280;58548;47.210;8.618;2024-03-23T05:47:27;93356.41;;;17.97;32.15
70902;BME280;58548;47.210;8.618;2024-03-23T05:49:56;93344.25;;;17.96;32.33
70902;BME280;58548;47.210;8.618;2024-03-23T05:52:22;93463.69;;;18.68;31.87
70902;BME280;58548;47.210;8.618;2024-03-23T05:54:51;93458.16;;;18.75;33.16
70902;BME280;58548;47.210;8.618;2024-03-23T05:57:17;93472.78;;;18.82;32.72
70902;BME280;58548;47.210;8.618;2024-03-23T05:59:44;93379.84;;;18.20;32.86
70902;BME280;58548;47.210;8.618;2024-03-23T06:02:12;93478.91;;;18.93;32.94
70902;BME280;58548;47.210;8.618;2024-03-23T06:04:38;93470.75;;;18.95;32.66
70902;BME280;58548;47.210;8.618;2024-03-23T06:07:04;93457.97;;;18.87;33.21
70902;BME280;58548;47.210;8.618;2024-03-23T06:09:32;93401.00;;;18.20;34.58
70902;BME280;58548;47.210;8.618;2024-03-23T06:12:01;93499.91;;;18.67;36.59
70902;BME280;58548;47.210;8.618;2024-03-23T06:14:26;93443.19;;;18.10;36.92
70902;BME280;58548;47.210;8.618;2024-03-23T06:16:52;93409.06;;;17.76;37.59
70902;BME280;58548;47.210;8.618;2024-03-23T06:19:20;93494.38;;;18.36;38.34
70902;BME280;58548;47.210;8.618;2024-03-23T06:21:48;93528.59;;;18.48;38.08
70902;BME280;58548;47.210;8.618;2024-03-23T06:24:16;93501.53;;;18.36;39.02
70902;BME280;58548;47.210;8.618;2024-03-23T06:26:44;93535.88;;;18.68;38.85
70902;BME280;58548;47.210;8.618;2024-03-23T06:29:12;93405.56;;;17.98;38.21
70902;BME280;58548;47.210;8.618;2024-03-23T06:31:43;93543.66;;;18.80;39.13
70902;BME280;58548;47.210;8.618;2024-03-23T06:34:11;93525.59;;;18.72;38.70
70902;BME280;58548;47.210;8.618;2024-03-23T06:36:39;93551.59;;;18.80;38.74
70902;BME280;58548;47.210;8.618;2024-03-23T06:39:10;93541.47;;;18.72;39.68
70902;BME280;58548;47.210;8.618;2024-03-23T06:41:54;93455.44;;;18.21;39.69
70902;BME280;58548;47.210;8.618;2024-03-23T06:44:24;93518.66;;;18.61;40.25
70902;BME280;58548;47.210;8.618;2024-03-23T06:46:50;93539.63;;;18.73;40.02
70902;BME280;58548;47.210;8.618;2024-03-23T06:49:16;93508.69;;;18.41;41.09
70902;BME280;58548;47.210;8.618;2024-03-23T06:51:44;93462.00;;;18.19;40.47
70902;BME280;58548;47.210;8.618;2024-03-23T06:54:10;93571.09;;;18.74;40.90
70902;BME280;58548;47.210;8.618;2024-03-23T06:56:36;93517.97;;;18.43;41.30
70902;BME280;58548;47.210;8.618;2024-03-23T06:59:05;93453.53;;;17.89;41.73
70902;BME280;58548;47.210;8.618;2024-03-23T07:01:31;93468.75;;;17.77;42.39
70902;BME280;58548;47.210;8.618;2024-03-23T07:03:57;93552.16;;;18.22;42.71
70902;BME280;58548;47.210;8.618;2024-03-23T07:06:25;93588.50;;;18.37;42.81
70902;BME280;58548;47.210;8.618;2024-03-23T07:08:53;93496.66;;;17.68;42.46
70902;BME280;58548;47.210;8.618;2024-03-23T07:11:23;93578.69;;;18.33;43.12
70902;BME280;58548;47.210;8.618;2024-03-23T07:13:53;93487.69;;;17.69;43.00
70902;BME280;58548;47.210;8.618;2024-03-23T07:16:22;93479.22;;;17.67;42.46
70902;BME280;58548;47.210;8.618;2024-03-23T07:18:50;93583.19;;;18.32;42.60
70902;BME280;58548;47.210;8.618;2024-03-23T07:21:16;93494.56;;;17.70;41.80
70902;BME280;58548;47.210;8.618;2024-03-23T07:23:46;93478.25;;;17.51;42.59
70902;BME280;58548;47.210;8.618;2024-03-23T07:26:15;93506.72;;;17.71;42.36
70902;BME280;58548;47.210;8.618;2024-03-23T07:28:41;93602.53;;;18.38;41.92
70902;BME280;58548;47.210;8.618;2024-03-23T07:31:12;93592.91;;;18.27;41.90
70902;BME280;58548;47.210;8.618;2024-03-23T07:33:48;93531.09;;;17.78;42.19
70902;BME280;58548;47.210;8.618;2024-03-23T07:36:16;93596.56;;;18.20;41.86
70902;BME280;58548;47.210;8.618;2024-03-23T07:38:43;93628.50;;;18.46;41.46
70902;BME280;58548;47.210;8.618;2024-03-23T07:41:13;93636.75;;;18.50;41.15
70902;BME280;58548;47.210;8.618;2024-03-23T07:43:40;93628.34;;;18.58;40.51
70902;BME280;58548;47.210;8.618;2024-03-23T07:46:06;93540.34;;;18.03;40.39
70902;BME280;58548;47.210;8.618;2024-03-23T07:48:35;93633.22;;;18.39;40.08
70902;BME280;58548;47.210;8.618;2024-03-23T07:51:07;93659.28;;;18.58;39.93
70902;BME280;58548;47.210;8.618;2024-03-23T07:53:35;93632.59;;;18.32;40.29
70902;BME280;58548;47.210;8.618;2024-03-23T07:56:08;93674.56;;;18.50;41.06
70902;BME280;58548;47.210;8.618;2024-03-23T07:58:41;93643.78;;;18.39;40.64
70902;BME280;58548;47.210;8.618;2024-03-23T08:01:16;93561.75;;;17.79;40.36
70902;BME280;58548;47.210;8.618;2024-03-23T08:03:45;93672.03;;;18.61;40.22
70902;BME280;58548;47.210;8.618;2024-03-23T08:06:14;93683.28;;;18.78;39.66
70902;BME280;58548;47.210;8.618;2024-03-23T08:08:45;93678.28;;;18.82;39.44
70902;BME280;58548;47.210;8.618;2024-03-23T08:11:13;93595.38;;;18.11;39.73
70902;BME280;58548;47.210;8.618;2024-03-23T08:13:41;93682.06;;;18.59;39.72
70902;BME280;58548;47.210;8.618;2024-03-23T08:16:07;93623.47;;;17.73;38.62
70902;BME280;58548;47.210;8.618;2024-03-23T08:18:37;93730.63;;;18.08;38.03
70902;BME280;58548;47.210;8.618;2024-03-23T08:21:10;93736.19;;;17.89;37.25
70902;BME280;58548;47.210;8.618;2024-03-23T08:23:37;93721.44;;;17.54;37.72
70902;BME280;58548;47.210;8.618;2024-03-23T08:26:05;93756.94;;;17.63;36.92
70902;BME280;58548;47.210;8.618;2024-03-23T08:28:32;93759.91;;;17.67;36.45
70902;BME280;58548;47.210;8.618;2024-03-23T08:31:06;93671.78;;;17.00;37.13
70902;BME280;58548;47.210;8.618;2024-03-23T08:33:32;93773.00;;;17.28;36.56
70902;BME280;58548;47.210;8.618;2024-03-23T08:36:02;93681.41;;;16.77;36.08
70902;BME280;58548;47.210;8.618;2024-03-23T08:38:30;93809.31;;;17.38;35.92
70902;BME280;58548;47.210;8.618;2024-03-23T08:43:32;93835.03;;;17.13;35.64
70902;BME280;58548;47.210;8.618;2024-03-23T08:46:16;93844.38;;;17.04;35.57
70902;BME280;58548;47.210;8.618;2024-03-23T08:48:44;93762.97;;;16.26;35.70
70902;BME280;58548;47.210;8.618;2024-03-23T08:51:15;93836.22;;;16.53;36.48
70902;BME280;58548;47.210;8.618;2024-03-23T08:53:45;93853.44;;;16.43;35.96
70902;BME280;58548;47.210;8.618;2024-03-23T08:56:18;93817.28;;;16.03;36.24
70902;BME280;58548;47.210;8.618;2024-03-23T08:58:46;93862.16;;;16.32;36.33
70902;BME280;58548;47.210;8.618;2024-03-23T09:01:13;93867.41;;;16.32;36.58
70902;BME280;58548;47.210;8.618;2024-03-23T09:03:39;93830.09;;;16.11;35.90
70902;BME280;58548;47.210;8.618;2024-03-23T09:06:13;93816.13;;;15.99;36.10
70902;BME280;58548;47.210;8.618;2024-03-23T09:08:40;93902.38;;;16.27;36.34
70902;BME280;58548;47.210;8.618;2024-03-23T09:11:11;93781.84;;;15.40;35.57
70902;BME280;58548;47.210;8.618;2024-03-23T09:13:40;93906.25;;;16.01;36.27
70902;BME280;58548;47.210;8.618;2024-03-23T09:16:10;93910.28;;;16.16;36.18
70902;BME280;58548;47.210;8.618;2024-03-23T09:18:36;93814.81;;;15.42;36.21
70902;BME280;58548;47.210;8.618;2024-03-23T09:21:04;93797.03;;;15.37;36.32
70902;BME280;58548;47.210;8.618;2024-03-23T09:23:32;93919.00;;;16.16;35.72
70902;BME280;58548;47.210;8.618;2024-03-23T09:26:03;93916.56;;;16.03;35.26
70902;BME280;58548;47.210;8.618;2024-03-23T09:28:28;93923.09;;;16.00;35.36
70902;BME280;58548;47.210;8.618;2024-03-23T09:31:02;93924.91;;;16.00;35.23
70902;BME280;58548;47.210;8.618;2024-03-23T09:33:31;93838.50;;;15.42;34.71
70902;BME280;58548;47.210;8.618;2024-03-23T09:35:57;93921.59;;;15.92;35.41
70902;BME280;58548;47.210;8.618;2024-03-23T09:38:23;93923.78;;;16.07;35.53
70902;BME280;58548;47.210;8.618;2024-03-23T09:40:53;93927.69;;;16.17;35.52
70902;BME280;58548;47.210;8.618;2024-03-23T09:43:19;93902.91;;;15.94;34.73
70902;BME280;58548;47.210;8.618;2024-03-23T09:45:46;93934.09;;;16.21;34.60
70902;BME280;58548;47.210;8.618;2024-03-23T09:48:13;93825.06;;;15.32;35.13
70902;BME280;58548;47.210;8.618;2024-03-23T09:50:39;93939.59;;;16.07;35.40
70902;BME280;58548;47.210;8.618;2024-03-23T09:53:12;93914.59;;;15.98;34.57
70902;BME280;58548;47.210;8.618;2024-03-23T09:55:42;93944.38;;;16.10;35.12
70902;BME280;58548;47.210;8.618;2024-03-23T09:58:12;93933.31;;;16.08;34.92
70902;BME280;58548;47.210;8.618;2024-03-23T10:00:38;93945.09;;;16.18;34.85
70902;BME280;58548;47.210;8.618;2024-03-23T10:03:05;93956.34;;;16.25;34.99
70902;BME280;58548;47.210;8.618;2024-03-23T10:05:32;93932.94;;;16.17;35.04
70902;BME280;58548;47.210;8.618;2024-03-23T10:10:42;93947.16;;;16.16;34.28
70902;BME280;58548;47.210;8.618;2024-03-23T10:13:08;93939.38;;;16.21;34.80
70902;BME280;58548;47.210;8.618;2024-03-23T10:15:37;93954.59;;;16.19;34.15
70902;BME280;58548;47.210;8.618;2024-03-23T10:20:41;93838.28;;;15.56;33.63
70902;BME280;58548;47.210;8.618;2024-03-23T10:23:17;93898.94;;;16.03;33.19
70902;BME280;58548;47.210;8.618;2024-03-23T10:25:45;93953.34;;;16.33;34.03
70902;BME280;58548;47.210;8.618;2024-03-23T10:28:13;93834.31;;;15.65;33.65
70902;BME280;58548;47.210;8.618;2024-03-23T10:30:44;93939.97;;;16.35;32.53
70902;BME280;58548;47.210;8.618;2024-03-23T10:33:11;93907.63;;;16.16;33.24
70902;BME280;58548;47.210;8.618;2024-03-23T10:35:39;93894.13;;;16.12;32.80
70902;BME280;58548;47.210;8.618;2024-03-23T10:38:06;93902.25;;;16.10;33.27
70902;BME280;58548;47.210;8.618;2024-03-23T10:40:36;93849.28;;;15.76;32.24
70902;BME280;58548;47.210;8.618;2024-03-23T10:43:06;93946.16;;;16.40;32.38
70902;BME280;58548;47.210;8.618;2024-03-23T10:45:34;93946.25;;;16.46;32.46
70902;BME280;58548;47.210;8.618;2024-03-23T10:48:02;93955.91;;;16.52;33.10
70902;BME280;58548;47.210;8.618;2024-03-23T10:50:28;93955.41;;;16.55;33.10
70902;BME280;58548;47.210;8.618;2024-03-23T10:52:54;93847.53;;;15.89;32.69
70902;BME280;58548;47.210;8.618;2024-03-23T10:55:25;93962.66;;;16.60;32.02
70902;BME280;58548;47.210;8.618;2024-03-23T10:57:56;93854.38;;;15.90;32.61
70902;BME280;58548;47.210;8.618;2024-03-23T11:00:27;93962.28;;;16.56;31.68
70902;BME280;58548;47.210;8.618;2024-03-23T11:02:53;93839.91;;;15.80;32.08
70902;BME280;58548;47.210;8.618;2024-03-23T11:05:33;93955.78;;;16.58;31.86
70902;BME280;58548;47.210;8.618;2024-03-23T11:08:00;93858.28;;;15.99;31.48
70902;BME280;58548;47.210;8.618;2024-03-23T11:10:29;93953.94;;;16.59;31.25
70902;BME280;58548;47.210;8.618;2024-03-23T11:13:21;93957.25;;;16.66;31.74
70902;BME280;58548;47.210;8.618;2024-03-23T11:15:47;93948.78;;;16.64;31.07
70902;BME280;58548;47.210;8.618;2024-03-23T11:18:22;93942.47;;;16.53;31.44
70902;BME280;58548;47.210;8.618;2024-03-23T11:20:48;93960.34;;;16.63;31.83
70902;BME280;58548;47.210;8.618;2024-03-23T11:23:29;93954.06;;;16.64;31.35
70902;BME280;58548;47.210;8.618;2024-03-23T11:25:55;93944.88;;;16.55;31.45
70902;BME280;58548;47.210;8.618;2024-03-23T11:28:20;93933.53;;;16.54;31.60
70902;BME280;58548;47.210;8.618;2024-03-23T11:30:47;93888.75;;;16.31;31.51
70902;BME280;58548;47.210;8.618;2024-03-23T11:33:13;93954.63;;;16.78;31.50
70902;BME280;58548;47.210;8.618;2024-03-23T11:35:42;93947.59;;;16.84;30.97
70902;BME280;58548;47.210;8.618;2024-03-23T11:38:15;93926.97;;;16.81;30.71
70902;BME280;58548;47.210;8.618;2024-03-23T11:40:45;93949.09;;;16.92;30.83
70902;BME280;58548;47.210;8.618;2024-03-23T11:43:15;93918.63;;;16.72;31.00
70902;BME280;58548;47.210;8.618;2024-03-23T11:45:50;93937.06;;;16.84;30.72
70902;BME280;58548;47.210;8.618;2024-03-23T11:48:22;93841.91;;;16.21;30.58
70902;BME280;58548;47.210;8.618;2024-03-23T11:50:54;93950.59;;;16.99;30.16
70902;BME280;58548;47.210;8.618;2024-03-23T11:53:21;93952.91;;;16.96;30.71
70902;BME280;58548;47.210;8.618;2024-03-23T11:55:58;93860.22;;;16.39;30.76
70902;BME280;58548;47.210;8.618;2024-03-23T11:58:27;93943.25;;;17.01;30.81
70902;BME280;58548;47.210;8.618;2024-03-23T12:00:58;93948.28;;;17.15;30.54
70902;BME280;58548;47.210;8.618;2024-03-23T12:03:25;93957.22;;;17.14;30.71
70902;BME280;58548;47.210;8.618;2024-03-23T12:05:53;93919.38;;;17.08;31.13
70902;BME280;58548;47.210;8.618;2024-03-23T12:08:32;93946.84;;;17.24;31.35
70902;BME280;58548;47.210;8.618;2024-03-23T12:11:05;93938.13;;;17.36;31.58
70902;BME280;58548;47.210;8.618;2024-03-23T12:13:34;93846.94;;;16.87;31.12
70902;BME280;58548;47.210;8.618;2024-03-23T12:16:31;93944.81;;;17.55;30.84
70902;BME280;58548;47.210;8.618;2024-03-23T12:19:05;93923.75;;;17.60;30.57
70902;BME280;58548;47.210;8.618;2024-03-23T12:21:34;93884.56;;;17.52;29.87
70902;BME280;58548;47.210;8.618;2024-03-23T12:24:03;93803.22;;;17.20;29.03
70902;BME280;58548;47.210;8.618;2024-03-23T12:26:28;93794.47;;;17.66;29.33
70902;BME280;58548;47.210;8.618;2024-03-23T12:28:54;93773.97;;;17.90;26.83
70902;BME280;58548;47.210;8.618;2024-03-23T12:31:20;93767.69;;;18.13;26.93
70902;BME280;58548;47.210;8.618;2024-03-23T12:33:46;93841.09;;;18.67;25.98
70902;BME280;58548;47.210;8.618;2024-03-23T12:36:12;93884.78;;;18.92;25.83
70902;BME280;58548;47.210;8.618;2024-03-23T12:38:40;93867.34;;;18.74;24.43
70902;BME280;58548;47.210;8.618;2024-03-23T12:41:08;93770.13;;;17.98;25.05
70902;BME280;58548;47.210;8.618;2024-03-23T12:43:35;93811.09;;;18.17;24.51
70902;BME280;58548;47.210;8.618;2024-03-23T12:46:03;93760.75;;;17.90;24.49
70902;BME280;58548;47.210;8.618;2024-03-23T12:48:29;93783.03;;;17.77;24.20
70902;BME280;58548;47.210;8.618;2024-03-23T12:50:55;93768.78;;;17.44;25.04
70902;BME280;58548;47.210;8.618;2024-03-23T12:53:21;93865.22;;;17.98;25.11
70902;BME280;58548;47.210;8.618;2024-03-23T12:55:46;93870.50;;;18.15;25.18
70902;BME280;58548;47.210;8.618;2024-03-23T12:58:13;93741.44;;;17.50;25.49
70902;BME280;58548;47.210;8.618;2024-03-23T13:00:41;93856.72;;;18.30;25.45
70902;BME280;58548;47.210;8.618;2024-03-23T13:03:07;93844.41;;;18.18;25.35
70902;BME280;58548;47.210;8.618;2024-03-23T13:05:33;93833.38;;;18.21;25.69
70902;BME280;58548;47.210;8.618;2024-03-23T13:08:02;93846.03;;;18.19;25.33
70902;BME280;58548;47.210;8.618;2024-03-23T13:10:30;93766.63;;;17.58;24.28
70902;BME280;58548;47.210;8.618;2024-03-23T13:12:58;93863.13;;;18.17;24.92
70902;BME280;58548;47.210;8.618;2024-03-23T13:15:24;93736.06;;;17.45;25.99
70902;BME280;58548;47.210;8.618;2024-03-23T13:17:49;93755.56;;;17.78;26.70
70902;BME280;58548;47.210;8.618;2024-03-23T13:20:17;93850.97;;;18.55;25.96
70902;BME280;58548;47.210;8.618;2024-03-23T13:22:43;93840.41;;;18.77;25.71
70902;BME280;58548;47.210;8.618;2024-03-23T13:25:09;93845.63;;;18.94;26.41
70902;BME280;58548;47.210;8.618;2024-03-23T13:27:35;93820.47;;;18.92;25.49
70902;BME280;58548;47.210;8.618;2024-03-23T13:30:01;93839.38;;;19.01;26.35
70902;BME280;58548;47.210;8.618;2024-03-23T13:32:29;93785.97;;;18.81;25.35
70902;BME280;58548;47.210;8.618;2024-03-23T13:34:55;93736.41;;;18.49;25.59
70902;BME280;58548;47.210;8.618;2024-03-23T13:37:21;93796.09;;;18.90;23.76
70902;BME280;58548;47.210;8.618;2024-03-23T13:39:52;93726.91;;;18.26;24.56
70902;BME280;58548;47.210;8.618;2024-03-23T13:42:18;93832.81;;;19.08;25.44
70902;BME280;58548;47.210;8.618;2024-03-23T13:44:46;93746.25;;;18.54;22.38
70902;BME280;58548;47.210;8.618;2024-03-23T13:47:15;93717.84;;;18.22;22.40
70902;BME280;58548;47.210;8.618;2024-03-23T13:49:41;93792.50;;;18.51;21.44
70902;BME280;58548;47.210;8.618;2024-03-23T13:52:10;93765.72;;;18.26;21.65
70902;BME280;58548;47.210;8.618;2024-03-23T13:54:36;93817.22;;;18.40;21.82
70902;BME280;58548;47.210;8.618;2024-03-23T13:57:03;93823.53;;;18.39;21.66
70902;BME280;58548;47.210;8.618;2024-03-23T13:59:31;93788.19;;;18.06;22.31
70902;BME280;58548;47.210;8.618;2024-03-23T14:01:59;93819.53;;;18.36;22.75
70902;BME280;58548;47.210;8.618;2024-03-23T14:04:24;93818.06;;;18.46;21.46
70902;BME280;58548;47.210;8.618;2024-03-23T14:06:50;93790.72;;;18.35;20.81